createdAt,value
2022-11-24T00:01:19.890Z,2.67
2022-11-24T00:03:53.239Z,3.13
2022-11-24T00:06:20.581Z,2.00
2022-11-24T00:08:47.890Z,1.52
2022-11-24T00:11:26.948Z,2.25
2022-11-24T00:13:54.549Z,1.77
2022-11-24T00:16:27.530Z,4.65
2022-11-24T00:18:56.823Z,3.95
2022-11-24T00:21:24.352Z,3.10
2022-11-24T00:23:52.570Z,2.55
2022-11-24T00:26:20.772Z,5.68
2022-11-24T00:28:49.878Z,5.05
2022-11-24T00:31:24.529Z,3.67
2022-11-24T00:33:53.815Z,4.72
2022-11-24T00:36:21.562Z,2.80
2022-11-24T00:38:54.439Z,2.63
2022-11-24T00:41:22.012Z,5.25
2022-11-24T00:43:49.294Z,4.20
2022-11-24T00:46:16.602Z,2.30
2022-11-24T00:48:44.183Z,4.38
2022-11-24T00:51:13.177Z,5.88
2022-11-24T00:53:40.474Z,6.60
2022-11-24T00:56:07.921Z,9.35
2022-11-24T00:58:35.392Z,4.85
2022-11-24T01:01:13.876Z,3.10
2022-11-24T01:03:42.222Z,3.17
2022-11-24T01:06:12.097Z,1.88
2022-11-24T01:08:39.736Z,5.55
2022-11-24T01:11:28.573Z,4.10
2022-11-24T01:13:58.989Z,5.75
2022-11-24T01:16:29.510Z,2.00
2022-11-24T01:18:56.784Z,3.10
2022-11-24T01:21:24.177Z,6.75
2022-11-24T01:23:51.652Z,8.38
2022-11-24T01:26:20.499Z,5.53
2022-11-24T01:28:48.062Z,6.22
2022-11-24T01:31:15.777Z,7.88
2022-11-24T01:33:43.110Z,6.15
2022-11-24T01:36:10.417Z,5.20
2022-11-24T01:38:37.698Z,4.50
2022-11-24T01:41:13.100Z,5.75
2022-11-24T01:43:40.922Z,9.88
2022-11-24T01:46:14.119Z,4.10
2022-11-24T01:48:46.648Z,5.63
2022-11-24T01:51:25.171Z,6.43
2022-11-24T01:54:01.035Z,7.35
2022-11-24T01:56:33.289Z,6.50
2022-11-24T01:59:02.428Z,8.40
2022-11-24T02:01:31.527Z,5.40
2022-11-24T02:03:59.160Z,10.68
2022-11-24T02:06:29.217Z,6.93
2022-11-24T02:09:26.436Z,9.68
2022-11-24T02:11:54.701Z,9.00
2022-11-24T02:14:23.825Z,7.95
2022-11-24T02:16:53.007Z,8.20
2022-11-24T02:19:37.391Z,11.90
2022-11-24T02:22:05.049Z,8.07
2022-11-24T02:24:32.841Z,11.85
2022-11-24T02:27:00.365Z,7.00
2022-11-24T02:29:27.616Z,8.30
2022-11-24T02:32:01.990Z,5.60
2022-11-24T02:34:29.296Z,9.57
2022-11-24T02:36:56.538Z,9.52
2022-11-24T02:39:23.765Z,10.38
2022-11-24T02:41:54.682Z,13.65
2022-11-24T02:44:24.020Z,7.82
2022-11-24T02:47:02.539Z,7.78
2022-11-24T02:49:29.929Z,9.65
2022-11-24T02:51:57.240Z,5.15
2022-11-24T02:54:24.527Z,11.40
2022-11-24T02:56:52.071Z,5.95
2022-11-24T02:59:19.400Z,8.45
2022-11-24T03:01:46.694Z,10.98
2022-11-24T03:04:14.122Z,7.97
2022-11-24T03:06:41.488Z,9.20
2022-11-24T03:09:08.725Z,9.80
2022-11-24T03:11:36.011Z,8.90
2022-11-24T03:14:03.251Z,7.85
2022-11-24T03:16:30.523Z,8.40
2022-11-24T03:18:57.789Z,11.77
2022-11-24T03:21:25.052Z,6.93
2022-11-24T03:23:53.319Z,8.30
2022-11-24T03:26:24.389Z,5.28
2022-11-24T03:28:55.145Z,12.60
2022-11-24T03:31:22.943Z,15.45
2022-11-24T03:33:50.262Z,17.33
2022-11-24T03:36:17.509Z,9.90
2022-11-24T03:38:44.822Z,6.72
2022-11-24T03:41:12.261Z,5.25
2022-11-24T03:43:43.781Z,5.63
2022-11-24T03:46:12.427Z,8.35
2022-11-24T03:48:40.071Z,17.15
2022-11-24T03:51:07.505Z,16.05
2022-11-24T03:53:34.978Z,16.83
2022-11-24T03:56:02.687Z,14.55
2022-11-24T03:58:30.207Z,13.32
2022-11-24T04:00:57.813Z,11.95
2022-11-24T04:03:25.660Z,16.80
2022-11-24T04:05:54.415Z,5.82
2022-11-24T04:08:22.296Z,8.48
2022-11-24T04:10:54.193Z,12.77
2022-11-24T04:13:22.865Z,11.98
2022-11-24T04:15:50.329Z,7.57
2022-11-24T04:18:17.840Z,9.98
2022-11-24T04:20:45.697Z,12.13
2022-11-24T04:23:13.003Z,14.13
2022-11-24T04:25:42.396Z,12.70
2022-11-24T04:28:10.116Z,6.73
2022-11-24T04:30:38.630Z,14.85
2022-11-24T04:33:05.907Z,11.32
2022-11-24T04:35:33.228Z,13.90
2022-11-24T04:38:02.910Z,22.33
2022-11-24T04:40:30.355Z,15.07
2022-11-24T04:42:57.966Z,11.27
2022-11-24T04:45:25.404Z,11.40
2022-11-24T04:47:52.725Z,20.98
2022-11-24T04:50:20.808Z,11.38
2022-11-24T04:52:48.227Z,13.38
2022-11-24T04:55:15.623Z,13.85
2022-11-24T04:57:42.963Z,9.70
2022-11-24T05:00:11.005Z,9.23
2022-11-24T05:02:38.602Z,19.25
2022-11-24T05:05:07.003Z,9.23
2022-11-24T05:07:34.894Z,11.35
2022-11-24T05:10:20.943Z,11.98
2022-11-24T05:12:56.229Z,14.57
2022-11-24T05:15:24.083Z,13.82
2022-11-24T05:17:51.459Z,13.65
2022-11-24T05:20:18.813Z,17.40
2022-11-24T05:22:46.073Z,15.23
2022-11-24T05:25:14.310Z,12.75
2022-11-24T05:27:41.779Z,15.57
2022-11-24T05:30:09.674Z,11.32
2022-11-24T05:32:36.949Z,11.32
2022-11-24T05:35:04.683Z,5.50
2022-11-24T05:37:32.037Z,19.80
2022-11-24T05:39:59.342Z,16.38
2022-11-24T05:42:46.522Z,15.35
2022-11-24T05:45:17.444Z,13.48
2022-11-24T05:47:44.806Z,11.90
2022-11-24T05:50:13.705Z,18.15
2022-11-24T05:52:41.258Z,9.82
2022-11-24T05:55:09.445Z,7.05
2022-11-24T05:57:36.786Z,17.58
2022-11-24T06:00:08.194Z,13.02
2022-11-24T06:02:41.455Z,13.27
2022-11-24T06:05:09.171Z,16.63
2022-11-24T06:07:36.567Z,15.57
2022-11-24T06:10:03.974Z,14.77
2022-11-24T06:12:31.247Z,13.20
2022-11-24T06:14:58.135Z,19.52
2022-11-24T06:17:27.690Z,19.42
2022-11-24T06:19:55.106Z,19.02
2022-11-24T06:22:22.562Z,15.10
2022-11-24T06:24:51.137Z,12.88
2022-11-24T06:27:26.714Z,18.08
2022-11-24T06:29:54.154Z,17.58
2022-11-24T06:32:21.520Z,11.07
2022-11-24T06:34:48.854Z,11.32
2022-11-24T06:37:16.160Z,21.10
2022-11-24T06:39:43.445Z,22.10
2022-11-24T06:42:11.305Z,10.43
2022-11-24T06:44:39.408Z,21.42
2022-11-24T06:47:06.870Z,13.20
2022-11-24T06:49:34.254Z,20.50
2022-11-24T06:52:01.557Z,18.45
2022-11-24T06:54:28.854Z,14.93
2022-11-24T06:56:59.649Z,18.13
2022-11-24T06:59:27.717Z,15.73
2022-11-24T07:01:55.086Z,13.00
2022-11-24T07:04:22.453Z,12.32
2022-11-24T07:06:50.049Z,31.88
2022-11-24T07:09:17.381Z,12.93
2022-11-24T07:11:44.691Z,17.35
2022-11-24T07:14:12.075Z,21.38
2022-11-24T07:16:39.650Z,23.23
2022-11-24T07:19:07.008Z,12.13
2022-11-24T07:21:34.345Z,18.83
2022-11-24T07:24:07.734Z,13.63
2022-11-24T07:26:37.687Z,21.38
2022-11-24T07:29:05.662Z,19.25
2022-11-24T07:31:33.119Z,32.55
2022-11-24T07:34:00.425Z,15.73
2022-11-24T07:36:27.822Z,14.50
2022-11-24T07:38:55.112Z,16.55
2022-11-24T07:41:22.514Z,14.00
2022-11-24T07:43:50.635Z,19.77
2022-11-24T07:46:19.375Z,13.75
2022-11-24T07:48:47.236Z,17.73
2022-11-24T07:51:15.608Z,19.08
2022-11-24T07:53:42.956Z,25.25
2022-11-24T07:56:10.731Z,21.33
2022-11-24T07:58:38.388Z,12.90
2022-11-24T08:01:15.799Z,23.55
2022-11-24T08:03:44.062Z,21.98
2022-11-24T08:06:31.850Z,11.18
2022-11-24T08:08:59.292Z,19.08
2022-11-24T08:11:26.698Z,18.83
2022-11-24T08:13:53.989Z,17.77
2022-11-24T08:16:21.390Z,26.77
2022-11-24T08:18:55.785Z,9.75
2022-11-24T08:21:23.701Z,19.63
2022-11-24T08:23:56.369Z,14.50
2022-11-24T08:26:24.961Z,28.77
2022-11-24T08:28:59.371Z,17.90
2022-11-24T08:31:34.142Z,18.42
2022-11-24T08:34:03.399Z,17.65
2022-11-24T08:36:30.697Z,18.48
2022-11-24T08:38:59.671Z,18.95
2022-11-24T08:41:27.598Z,23.00
2022-11-24T08:43:55.095Z,14.55
2022-11-24T08:46:23.516Z,20.85
2022-11-24T08:48:52.508Z,19.83
2022-11-24T08:51:21.882Z,20.75
2022-11-24T08:53:49.251Z,26.45
2022-11-24T08:56:16.946Z,22.15
2022-11-24T08:58:44.299Z,20.98
2022-11-24T09:01:15.475Z,17.02
2022-11-24T09:03:49.983Z,18.73
2022-11-24T09:06:19.537Z,18.55
2022-11-24T09:08:46.898Z,19.20
2022-11-24T09:11:15.337Z,15.00
2022-11-24T09:13:42.869Z,30.83
2022-11-24T09:16:16.216Z,24.63
2022-11-24T09:18:43.781Z,20.67
2022-11-24T09:21:17.566Z,15.75
2022-11-24T09:23:46.148Z,20.13
2022-11-24T09:26:15.895Z,14.35
2022-11-24T09:28:43.596Z,20.27
2022-11-24T09:31:13.115Z,17.52
2022-11-24T09:33:40.798Z,17.55
2022-11-24T09:36:08.380Z,20.65
2022-11-24T09:38:35.734Z,19.08
2022-11-24T09:41:17.799Z,14.60
2022-11-24T09:44:06.724Z,15.57
2022-11-24T09:46:57.392Z,20.23
2022-11-24T09:49:51.653Z,14.25
2022-11-24T09:53:01.862Z,20.50
2022-11-24T09:55:35.342Z,13.35
2022-11-24T09:58:30.786Z,14.75
2022-11-24T10:00:59.473Z,9.98
2022-11-24T10:03:29.498Z,19.25
2022-11-24T10:05:57.039Z,18.98
2022-11-24T10:08:54.137Z,8.75
2022-11-24T10:11:39.614Z,10.73
2022-11-24T10:14:27.885Z,10.25
2022-11-24T10:17:25.750Z,14.15
2022-11-24T10:20:30.548Z,12.70
2022-11-24T10:23:00.243Z,12.07
2022-11-24T10:26:06.775Z,18.50
2022-11-24T10:28:45.041Z,15.68
2022-11-24T10:31:23.471Z,15.20
2022-11-24T10:33:51.261Z,15.13
2022-11-24T10:36:31.743Z,10.43
2022-11-24T10:39:21.789Z,16.00
2022-11-24T10:41:55.507Z,13.77
2022-11-24T10:44:22.798Z,9.55
2022-11-24T10:46:50.280Z,10.73
2022-11-24T10:49:25.104Z,10.18
2022-11-24T10:51:52.633Z,16.02
2022-11-24T10:54:22.612Z,11.27
2022-11-24T10:57:00.796Z,13.68
2022-11-24T10:59:44.414Z,19.95
2022-11-24T11:02:47.666Z,16.75
2022-11-24T11:06:02.078Z,15.43
2022-11-24T11:08:30.886Z,11.38
2022-11-24T11:12:27.668Z,13.75
2022-11-24T11:15:06.366Z,13.02
2022-11-24T11:18:08.011Z,10.13
2022-11-24T11:20:35.518Z,11.82
2022-11-24T11:23:20.384Z,13.25
2022-11-24T11:25:48.457Z,18.92
2022-11-24T11:28:27.796Z,12.02
2022-11-24T11:31:16.814Z,12.80
2022-11-24T11:34:05.357Z,9.27
2022-11-24T11:36:33.842Z,6.72
2022-11-24T11:39:01.399Z,6.18
2022-11-24T11:41:36.006Z,8.30
2022-11-24T11:44:29.685Z,7.18
2022-11-24T11:46:59.116Z,13.93
2022-11-24T11:49:26.710Z,20.05
2022-11-24T11:52:22.695Z,16.13
2022-11-24T11:55:33.109Z,6.38
2022-11-24T12:00:55.056Z,8.73
2022-11-24T12:03:44.031Z,8.88
2022-11-24T12:06:41.701Z,12.90
2022-11-24T12:09:41.601Z,15.13
2022-11-24T12:12:33.628Z,10.68
2022-11-24T12:15:10.353Z,9.57
2022-11-24T12:17:48.690Z,12.25
2022-11-24T12:20:28.320Z,8.80
2022-11-24T12:23:01.285Z,11.40
2022-11-24T12:25:31.781Z,11.18
2022-11-24T12:28:41.779Z,10.48
2022-11-24T12:31:17.636Z,13.43
2022-11-24T12:34:11.708Z,8.63
2022-11-24T12:36:42.375Z,11.98
2022-11-24T12:39:13.019Z,8.75
2022-11-24T12:41:46.625Z,4.18
2022-11-24T12:44:55.903Z,15.50
2022-11-24T12:47:38.603Z,18.35
2022-11-24T12:50:15.826Z,9.05
2022-11-24T12:52:58.833Z,7.72
2022-11-24T12:55:27.728Z,5.43
2022-11-24T12:57:55.144Z,6.00
2022-11-24T13:00:41.288Z,7.22
2022-11-24T13:03:21.235Z,9.38
2022-11-24T13:05:54.240Z,9.13
2022-11-24T13:08:21.936Z,3.42
2022-11-24T13:10:57.885Z,10.32
2022-11-24T13:13:30.287Z,13.02
2022-11-24T13:16:20.652Z,10.23
2022-11-24T13:18:53.684Z,12.95
2022-11-24T13:21:33.351Z,10.10
2022-11-24T13:24:03.148Z,7.20
2022-11-24T13:26:50.252Z,7.18
2022-11-24T13:29:29.801Z,7.20
2022-11-24T13:32:03.268Z,13.10
2022-11-24T13:34:42.983Z,7.65
2022-11-24T13:37:31.564Z,9.68
2022-11-24T13:40:23.119Z,7.70
2022-11-24T13:42:56.337Z,8.25
2022-11-24T13:45:46.966Z,6.25
2022-11-24T13:50:51.397Z,6.65
2022-11-24T13:53:37.207Z,6.10
2022-11-24T13:56:30.870Z,4.88
2022-11-24T13:59:16.812Z,6.55
2022-11-24T14:01:46.883Z,4.13
2022-11-24T14:04:36.039Z,5.53
2022-11-24T14:07:09.408Z,3.60
2022-11-24T14:09:37.138Z,2.22
2022-11-24T14:12:13.687Z,4.65
2022-11-24T14:14:41.404Z,5.13
2022-11-24T14:17:14.646Z,4.28
2022-11-24T14:19:46.470Z,2.92
2022-11-24T14:22:19.446Z,5.07
2022-11-24T14:24:58.772Z,3.40
2022-11-24T14:27:38.360Z,8.75
2022-11-24T14:30:26.031Z,3.40
2022-11-24T14:32:58.214Z,2.90
2022-11-24T14:35:29.601Z,2.45
2022-11-24T14:37:57.348Z,4.95
2022-11-24T14:40:51.500Z,7.20
2022-11-24T14:43:29.662Z,2.15
2022-11-24T14:45:56.929Z,3.85
2022-11-24T14:48:29.478Z,5.03
2022-11-24T14:51:12.865Z,8.25
2022-11-24T14:53:45.441Z,4.65
2022-11-24T14:56:40.714Z,4.80
2022-11-24T14:59:25.377Z,2.72
2022-11-24T15:01:53.007Z,3.60
2022-11-24T15:05:00.932Z,8.07
2022-11-24T15:07:29.427Z,9.57
2022-11-24T15:10:02.450Z,15.25
2022-11-24T15:12:30.775Z,19.23
2022-11-24T15:15:04.498Z,25.88
2022-11-24T15:17:44.782Z,24.13
2022-11-24T15:23:21.002Z,14.07
2022-11-24T15:26:01.494Z,8.30
2022-11-24T15:32:18.404Z,5.22
2022-11-24T15:38:54.408Z,8.18
2022-11-24T15:41:33.882Z,7.90
2022-11-24T15:44:01.314Z,6.20
2022-11-24T15:46:30.561Z,9.15
2022-11-24T15:48:58.429Z,7.47
2022-11-24T15:51:26.969Z,11.38
2022-11-24T15:54:00.612Z,11.07
2022-11-24T15:56:36.493Z,9.68
2022-11-24T15:59:07.568Z,9.60
2022-11-24T16:01:41.413Z,7.32
2022-11-24T16:04:37.257Z,10.07
2022-11-24T16:07:06.820Z,7.15
2022-11-24T16:09:36.747Z,8.47
2022-11-24T16:12:06.832Z,4.47
2022-11-24T16:14:34.939Z,7.10
2022-11-24T16:17:08.848Z,4.28
2022-11-24T16:19:41.831Z,5.65
2022-11-24T16:22:09.502Z,6.03
2022-11-24T16:24:37.177Z,4.35
2022-11-24T16:27:07.425Z,11.15
2022-11-24T16:29:38.410Z,5.85
2022-11-24T16:32:06.199Z,5.50
2022-11-24T16:34:33.827Z,8.98
2022-11-24T16:37:01.472Z,5.93
2022-11-24T16:39:28.792Z,5.70
2022-11-24T16:41:56.077Z,5.10
2022-11-24T16:44:23.404Z,7.78
2022-11-24T16:46:50.914Z,7.15
2022-11-24T16:49:18.329Z,6.25
2022-11-24T16:51:45.654Z,6.50
2022-11-24T16:54:12.982Z,6.72
2022-11-24T16:56:40.246Z,6.63
2022-11-24T16:59:07.872Z,8.25
2022-11-24T17:01:39.175Z,10.77
2022-11-24T17:04:12.921Z,10.70
2022-11-24T17:06:40.591Z,5.88
2022-11-24T17:09:08.019Z,7.93
2022-11-24T17:11:35.427Z,7.25
2022-11-24T17:14:03.196Z,14.10
2022-11-24T17:16:30.752Z,7.45
2022-11-24T17:18:58.888Z,14.35
2022-11-24T17:21:27.452Z,7.72
2022-11-24T17:23:58.397Z,6.72
2022-11-24T17:26:26.191Z,7.80
2022-11-24T17:28:54.092Z,8.15
2022-11-24T17:31:27.325Z,9.43
2022-11-24T17:33:56.999Z,6.50
2022-11-24T17:36:24.895Z,6.28
2022-11-24T17:38:52.621Z,4.47
2022-11-24T17:41:20.306Z,10.93
2022-11-24T17:43:57.787Z,6.22
2022-11-24T17:46:29.433Z,4.80
2022-11-24T17:52:08.550Z,10.00
2022-11-24T17:55:05.509Z,9.77
2022-11-24T17:57:47.405Z,9.07
2022-11-24T18:00:24.554Z,8.38
2022-11-24T18:06:33.594Z,14.43
2022-11-24T18:09:00.704Z,12.95
2022-11-24T18:11:31.791Z,15.60
2022-11-24T18:14:02.579Z,4.88
2022-11-24T18:16:31.658Z,11.98
2022-11-24T18:19:10.037Z,7.47
2022-11-24T18:21:41.693Z,9.25
2022-11-24T18:24:09.894Z,10.65
2022-11-24T18:26:37.918Z,8.38
2022-11-24T18:29:04.925Z,14.27
2022-11-24T18:31:34.251Z,7.85
2022-11-24T18:34:02.187Z,7.57
2022-11-24T18:36:30.831Z,9.68
2022-11-24T18:39:06.364Z,10.88
2022-11-24T18:41:34.107Z,21.58
2022-11-24T18:44:07.869Z,15.77
2022-11-24T18:46:35.534Z,15.85
2022-11-24T18:49:02.465Z,18.20
2022-11-24T18:51:30.065Z,15.88
2022-11-24T18:54:02.162Z,16.67
2022-11-24T18:56:29.572Z,20.60
2022-11-24T18:58:57.148Z,21.45
2022-11-24T19:01:26.797Z,17.13
2022-11-24T19:03:56.986Z,18.45
2022-11-24T19:06:32.974Z,16.83
2022-11-24T19:09:03.089Z,15.20
2022-11-24T19:11:36.061Z,16.75
2022-11-24T19:14:05.669Z,14.10
2022-11-24T19:16:33.068Z,18.23
2022-11-24T19:19:01.724Z,9.10
2022-11-24T19:21:33.582Z,13.30
2022-11-24T19:24:05.075Z,9.43
2022-11-24T19:26:33.104Z,19.02
2022-11-24T19:28:59.973Z,23.42
2022-11-24T19:31:27.371Z,13.60
2022-11-24T19:33:55.315Z,12.27
2022-11-24T19:36:23.293Z,11.27
2022-11-24T19:38:52.411Z,9.93
2022-11-24T19:41:20.827Z,10.60
2022-11-24T19:43:48.648Z,15.20
2022-11-24T19:46:17.970Z,19.13
2022-11-24T19:48:48.531Z,20.25
2022-11-24T19:51:17.975Z,26.67
2022-11-24T19:53:45.617Z,10.80
2022-11-24T19:56:19.001Z,8.70
2022-11-24T19:58:47.262Z,10.02
2022-11-24T20:01:16.859Z,12.13
2022-11-24T20:03:45.402Z,13.48
2022-11-24T20:06:14.872Z,11.80
2022-11-24T20:08:43.121Z,15.63
2022-11-24T20:11:15.216Z,11.77
2022-11-24T20:13:44.443Z,14.63
2022-11-24T20:16:17.287Z,17.55
2022-11-24T20:18:46.360Z,10.88
2022-11-24T20:21:13.789Z,17.05
2022-11-24T20:23:41.537Z,12.65
2022-11-24T20:26:11.795Z,10.30
2022-11-24T20:28:39.905Z,17.02
2022-11-24T20:31:13.232Z,12.30
2022-11-24T20:33:41.255Z,15.35
2022-11-24T20:36:16.697Z,16.88
2022-11-24T20:38:44.494Z,9.18
2022-11-24T20:41:14.201Z,13.98
2022-11-24T20:43:42.275Z,9.20
2022-11-24T20:46:12.473Z,9.43
2022-11-24T20:48:39.700Z,12.68
2022-11-24T20:51:09.404Z,11.98
2022-11-24T20:53:37.066Z,8.18
2022-11-24T20:56:06.545Z,9.73
2022-11-24T20:58:35.300Z,12.25
2022-11-24T21:01:07.794Z,9.68
2022-11-24T21:03:39.693Z,9.45
2022-11-24T21:06:10.537Z,10.35
2022-11-24T21:08:38.143Z,10.73
2022-11-24T21:11:06.767Z,10.73
2022-11-24T21:13:35.290Z,10.60
2022-11-24T21:16:11.953Z,15.25
2022-11-24T21:18:39.285Z,8.00
2022-11-24T21:21:06.820Z,10.63
2022-11-24T21:23:34.122Z,13.52
2022-11-24T21:26:07.455Z,12.00
2022-11-24T21:28:38.065Z,13.02
2022-11-24T21:31:11.230Z,10.13
2022-11-24T21:33:43.256Z,11.30
2022-11-24T21:36:10.659Z,11.43
2022-11-24T21:38:38.056Z,16.55
2022-11-24T21:41:07.040Z,11.30
2022-11-24T21:43:34.691Z,6.30
2022-11-24T21:46:06.402Z,10.60
2022-11-24T21:48:34.725Z,8.25
2022-11-24T21:51:05.037Z,4.90
2022-11-24T21:53:35.609Z,13.15
2022-11-24T21:56:05.839Z,11.77
2022-11-24T21:58:33.642Z,8.70
2022-11-24T22:01:11.065Z,12.57
2022-11-24T22:03:38.468Z,12.80
2022-11-24T22:06:05.655Z,9.65
2022-11-24T22:08:32.576Z,8.77
2022-11-24T22:11:09.839Z,7.20
2022-11-24T22:13:37.285Z,10.10
2022-11-24T22:16:07.806Z,8.65
2022-11-24T22:18:39.936Z,9.05
2022-11-24T22:21:10.625Z,9.23
2022-11-24T22:23:37.890Z,20.15
2022-11-24T22:26:14.933Z,22.55
2022-11-24T22:28:42.746Z,20.50
2022-11-24T22:31:18.109Z,17.63
2022-11-24T22:33:45.643Z,24.30
2022-11-24T22:36:14.048Z,15.70
2022-11-24T22:38:41.560Z,21.80
2022-11-24T22:41:11.065Z,17.77
2022-11-24T22:43:40.210Z,11.48
2022-11-24T22:46:12.893Z,9.32
2022-11-24T22:48:40.769Z,12.85
2022-11-24T22:51:19.810Z,8.35
2022-11-24T22:53:48.650Z,7.85
2022-11-24T22:56:16.302Z,10.20
2022-11-24T22:58:43.622Z,8.38
2022-11-24T23:01:15.614Z,14.18
2022-11-24T23:03:43.397Z,7.80
2022-11-24T23:06:16.492Z,6.03
2022-11-24T23:08:43.878Z,12.18
2022-11-24T23:11:18.039Z,9.75
2022-11-24T23:13:45.207Z,8.13
2022-11-24T23:16:17.990Z,10.90
2022-11-24T23:18:51.046Z,10.27
2022-11-24T23:21:24.349Z,8.65
2022-11-24T23:23:52.459Z,13.73
2022-11-24T23:26:25.522Z,16.98
2022-11-24T23:28:52.426Z,20.83
2022-11-24T23:31:24.097Z,9.82
2022-11-24T23:33:51.539Z,12.70
2022-11-24T23:36:20.079Z,10.15
2022-11-24T23:38:47.592Z,9.32
2022-11-24T23:41:19.278Z,14.38
2022-11-24T23:43:46.256Z,13.20
2022-11-24T23:46:20.436Z,6.22
2022-11-24T23:48:48.079Z,6.18
2022-11-24T23:51:22.598Z,11.98
2022-11-24T23:53:50.314Z,8.32
2022-11-24T23:56:22.959Z,10.52
2022-11-24T23:58:50.320Z,13.93
